KSNL/SNL METAR and TAF weather

Enter ICAO airport designator
Station Type Date Time Source
KSNL METAR 2022/01/29 00:55 UTC NOAA

KSNL 290055Z AUTO 00000KT 10SM CLR 05/M09 A3040 RMK AO2 T00451093


Station Type Date Time Source
KSNL Decoded METAR 2022/01/29 00:55 UTC NOAA

Shawnee, Shawnee Municipal Airport, OK, United States (KSNL) 35-21-26N 096-56-34W
Jan 28, 2022 - 07:55 PM EST / 2022.01.29 0055 UTC
Wind: Calm:0
Visibility: 10 mile(s):0
Sky conditions: clear
Temperature: 40.1 F (4.5 C)
Dew Point: 15.3 F (-9.3 C)
Relative Humidity: 35%
Pressure (altimeter): 30.4 in. Hg (1029 hPa)
ob: KSNL 290055Z AUTO 00000KT 10SM CLR 05/M09 A3040 RMK AO2 T00451093
cycle: 1

Station Type Date Time Source
KSNL TAF UTC NOAA

Error!

Example: see airport list